createdAt,value
2019-01-22T00:00:20.948Z,32.57
2019-01-22T00:02:49.402Z,33.57
2019-01-22T00:05:17.890Z,32.40
2019-01-22T00:07:46.382Z,32.63
2019-01-22T00:10:15.798Z,31.20
2019-01-22T00:12:44.254Z,34.10
2019-01-22T00:15:13.782Z,32.57
2019-01-22T00:17:42.532Z,31.70
2019-01-22T00:20:12.695Z,31.30
2019-01-22T00:22:41.231Z,32.10
2019-01-22T00:25:14.270Z,30.77
2019-01-22T00:27:42.817Z,32.13
2019-01-22T00:30:17.377Z,33.03
2019-01-22T00:32:45.852Z,32.67
2019-01-22T00:35:14.393Z,33.43
2019-01-22T00:37:42.866Z,32.43
2019-01-22T00:40:14.703Z,31.17
2019-01-22T00:42:43.622Z,34.33
2019-01-22T00:45:12.848Z,32.87
2019-01-22T00:47:41.311Z,32.53
2019-01-22T00:50:15.206Z,33.53
2019-01-22T00:52:43.675Z,31.73
2019-01-22T00:55:15.117Z,29.97
2019-01-22T00:57:43.593Z,30.93
2019-01-22T01:00:15.131Z,32.30
2019-01-22T01:02:43.605Z,32.43
2019-01-22T01:05:12.430Z,32.80
2019-01-22T01:07:40.908Z,31.83
2019-01-22T01:10:12.141Z,34.07
2019-01-22T01:12:40.670Z,34.43
2019-01-22T01:15:11.606Z,32.43
2019-01-22T01:17:40.149Z,32.77
2019-01-22T01:20:14.271Z,34.20
2019-01-22T01:22:42.726Z,33.83
2019-01-22T01:25:13.967Z,33.47
2019-01-22T01:27:42.416Z,32.63
2019-01-22T01:30:14.144Z,32.80
2019-01-22T01:32:42.653Z,33.83
2019-01-22T01:35:11.380Z,34.33
2019-01-22T01:37:39.877Z,34.13
2019-01-22T01:40:11.447Z,35.63
2019-01-22T01:42:40.104Z,33.10
2019-01-22T01:45:09.125Z,34.83
2019-01-22T01:47:37.625Z,33.67
2019-01-22T01:50:09.210Z,33.27
2019-01-22T01:52:37.748Z,33.10
2019-01-22T01:55:08.219Z,32.93
2019-01-22T01:57:36.751Z,32.50
2019-01-22T02:00:11.322Z,33.93
2019-01-22T02:02:39.832Z,33.77
2019-01-22T02:05:08.285Z,31.87
2019-01-22T02:07:36.771Z,34.30
2019-01-22T02:10:08.293Z,33.23
2019-01-22T02:12:40.102Z,32.63
2019-01-22T02:15:11.993Z,32.30
2019-01-22T02:17:52.392Z,33.00
2019-01-22T02:20:32.865Z,32.97
2019-01-22T02:23:10.512Z,32.50
2019-01-22T02:26:08.021Z,33.70
2019-01-22T02:28:48.614Z,32.37
2019-01-22T02:31:29.025Z,33.73
2019-01-22T02:34:27.584Z,33.47
2019-01-22T02:36:59.146Z,32.53
2019-01-22T02:39:56.404Z,32.63
2019-01-22T02:42:27.958Z,32.17
2019-01-22T02:45:14.330Z,32.30
2019-01-22T02:47:48.405Z,32.80
2019-01-22T02:50:34.707Z,31.30
2019-01-22T02:53:09.231Z,33.97
2019-01-22T02:55:43.478Z,31.63
2019-01-22T02:58:23.941Z,31.93
2019-01-22T03:01:16.441Z,30.63
2019-01-22T03:03:53.605Z,31.20
2019-01-22T03:06:30.804Z,31.27
2019-01-22T03:09:36.547Z,32.17
2019-01-22T03:12:19.923Z,29.97
2019-01-22T03:15:12.013Z,31.63
2019-01-22T03:17:55.438Z,31.37
2019-01-22T03:20:38.986Z,31.67
2019-01-22T03:23:27.001Z,31.60
2019-01-22T03:26:19.247Z,29.20
2019-01-22T03:28:56.438Z,30.27
2019-01-22T03:31:44.134Z,29.63
2019-01-22T03:34:15.687Z,31.10
2019-01-22T03:36:56.470Z,31.20
2019-01-22T03:39:43.028Z,30.87
2019-01-22T03:42:20.358Z,30.93
2019-01-22T03:44:52.071Z,31.77
2019-01-22T03:47:29.909Z,29.30
2019-01-22T03:50:09.696Z,31.57
2019-01-22T03:52:59.174Z,31.53
2019-01-22T03:55:39.658Z,31.63
2019-01-22T03:58:08.311Z,30.53
2019-01-22T04:00:38.425Z,30.87
2019-01-22T04:03:06.960Z,32.00
2019-01-22T04:05:35.447Z,31.07
2019-01-22T04:08:04.101Z,30.33
2019-01-22T04:10:32.929Z,30.70
2019-01-22T04:13:01.472Z,30.80
2019-01-22T04:15:33.031Z,30.20
2019-01-22T04:18:01.492Z,33.23
2019-01-22T04:20:29.991Z,29.40
2019-01-22T04:22:58.997Z,28.90
2019-01-22T04:25:40.508Z,29.87
2019-01-22T04:28:20.995Z,30.37
2019-01-22T04:30:58.681Z,29.07
2019-01-22T04:33:32.870Z,30.73
2019-01-22T04:36:07.080Z,29.47
2019-01-22T04:38:38.604Z,29.90
2019-01-22T04:41:37.312Z,29.20
2019-01-22T04:44:28.210Z,28.57
2019-01-22T04:47:17.635Z,31.07
2019-01-22T04:49:51.826Z,29.50
2019-01-22T04:52:23.350Z,29.33
2019-01-22T04:55:04.085Z,29.60
2019-01-22T04:57:38.097Z,31.27
2019-01-22T05:00:38.016Z,29.03
2019-01-22T05:03:12.510Z,28.77
2019-01-22T05:05:46.768Z,28.40
2019-01-22T05:08:34.597Z,29.67
2019-01-22T05:11:33.109Z,29.33
2019-01-22T05:14:10.427Z,29.93
2019-01-22T05:16:57.013Z,28.17
2019-01-22T05:19:34.365Z,29.53
2019-01-22T05:22:14.706Z,29.57
2019-01-22T05:24:57.503Z,29.37
2019-01-22T05:27:31.908Z,29.83
2019-01-22T05:30:09.440Z,28.90
2019-01-22T05:33:11.501Z,28.30
2019-01-22T05:36:05.459Z,28.37
2019-01-22T05:38:39.570Z,29.60
2019-01-22T05:41:22.470Z,29.10
2019-01-22T05:44:05.983Z,30.03
2019-01-22T05:46:43.309Z,30.63
2019-01-22T05:49:20.584Z,29.23
2019-01-22T05:51:52.304Z,29.40
2019-01-22T05:54:25.407Z,29.87
2019-01-22T05:56:57.255Z,30.00
2019-01-22T05:59:34.758Z,29.60
2019-01-22T06:02:08.990Z,31.33
2019-01-22T06:04:59.086Z,30.03
2019-01-22T06:07:48.916Z,27.90
2019-01-22T06:10:22.858Z,29.90
2019-01-22T06:13:08.737Z,28.97
2019-01-22T06:15:42.988Z,29.57
2019-01-22T06:18:23.418Z,29.37
2019-01-22T06:21:15.410Z,30.77
2019-01-22T06:23:52.620Z,29.00
2019-01-22T06:26:32.870Z,30.03
2019-01-22T06:29:12.923Z,31.03
2019-01-22T06:31:50.263Z,29.73
2019-01-22T06:34:33.536Z,31.97
2019-01-22T06:37:13.625Z,31.10
2019-01-22T06:39:45.143Z,30.17
2019-01-22T06:42:28.411Z,30.07
2019-01-22T06:45:15.106Z,30.13
2019-01-22T06:48:01.711Z,29.83
2019-01-22T06:50:39.078Z,29.63
2019-01-22T06:53:25.518Z,28.90
2019-01-22T06:56:22.491Z,31.03
2019-01-22T06:58:59.653Z,29.83
2019-01-22T07:01:50.675Z,31.00
2019-01-22T07:04:22.185Z,29.97
2019-01-22T07:07:02.705Z,30.23
2019-01-22T07:10:05.808Z,29.97
2019-01-22T07:12:43.018Z,30.63
2019-01-22T07:15:30.998Z,28.97
2019-01-22T07:18:05.336Z,29.30
2019-01-22T07:20:57.812Z,30.20
2019-01-22T07:23:33.499Z,28.93
2019-01-22T07:26:07.688Z,29.47
2019-01-22T07:28:44.770Z,30.40
2019-01-22T07:31:41.134Z,29.37
2019-01-22T07:34:45.925Z,28.20
2019-01-22T07:37:17.455Z,28.30
2019-01-22T07:39:54.779Z,28.70
2019-01-22T07:42:29.037Z,29.67
2019-01-22T07:45:15.369Z,29.57
2019-01-22T07:47:46.931Z,29.80
2019-01-22T07:50:47.453Z,28.93
2019-01-22T07:53:31.018Z,29.93
2019-01-22T07:56:24.076Z,28.30
2019-01-22T07:59:04.474Z,30.03
2019-01-22T08:01:45.104Z,28.67
2019-01-22T08:04:20.683Z,30.00
2019-01-22T08:06:57.239Z,28.97
2019-01-22T08:10:02.163Z,31.70
2019-01-22T08:12:54.634Z,28.57
2019-01-22T08:15:44.147Z,27.73
2019-01-22T08:18:35.393Z,27.20
2019-01-22T08:21:27.645Z,28.07
2019-01-22T08:23:59.154Z,29.60
2019-01-22T08:26:30.709Z,29.83
2019-01-22T08:29:11.039Z,27.70
2019-01-22T08:32:17.067Z,26.50
2019-01-22T08:34:56.905Z,27.53
2019-01-22T08:37:37.471Z,27.47
2019-01-22T08:40:09.023Z,27.27
2019-01-22T08:42:46.666Z,27.47
2019-01-22T08:45:18.211Z,27.90
2019-01-22T08:47:58.538Z,26.90
2019-01-22T08:50:33.062Z,27.03
2019-01-22T08:53:04.573Z,28.43
2019-01-22T08:55:42.056Z,26.27
2019-01-22T08:58:31.577Z,27.87
2019-01-22T09:01:18.087Z,27.10
2019-01-22T09:03:55.560Z,26.70
2019-01-22T09:06:29.516Z,28.33
2019-01-22T09:09:16.225Z,27.10
2019-01-22T09:11:50.651Z,26.70
2019-01-22T09:14:22.409Z,26.37
2019-01-22T09:17:08.775Z,25.27
2019-01-22T09:19:49.095Z,26.07
2019-01-22T09:22:29.358Z,26.50
2019-01-22T09:25:00.875Z,25.63
2019-01-22T09:27:44.076Z,25.43
2019-01-22T09:30:37.524Z,26.93
2019-01-22T09:36:38.670Z,23.77
2019-01-22T09:39:10.222Z,23.87
2019-01-22T09:41:38.808Z,25.60
2019-01-22T09:44:07.294Z,24.53
2019-01-22T09:46:35.803Z,25.47
2019-01-22T09:49:04.549Z,24.37
2019-01-22T09:51:33.218Z,24.57
2019-01-22T09:54:01.698Z,24.97
2019-01-22T09:56:30.183Z,24.17
2019-01-22T09:58:58.648Z,22.27
2019-01-22T10:01:27.478Z,21.87
2019-01-22T10:03:55.953Z,22.23
2019-01-22T10:06:25.984Z,21.90
2019-01-22T10:08:54.697Z,20.97
2019-01-22T10:11:23.248Z,23.83
2019-01-22T10:13:51.733Z,21.97
2019-01-22T10:16:20.305Z,21.37
2019-01-22T10:18:48.869Z,22.10
2019-01-22T10:21:17.350Z,20.53
2019-01-22T10:23:46.889Z,20.30
2019-01-22T10:26:15.504Z,21.27
2019-01-22T10:28:43.970Z,19.23
2019-01-22T10:31:12.432Z,20.53
2019-01-22T10:33:40.925Z,21.10
2019-01-22T10:36:09.408Z,20.57
2019-01-22T10:38:37.909Z,19.83
2019-01-22T10:41:06.372Z,18.43
2019-01-22T10:43:34.877Z,18.43
2019-01-22T10:46:03.414Z,20.57
2019-01-22T10:48:31.929Z,20.67
2019-01-22T10:51:00.422Z,20.03
2019-01-22T10:53:29.028Z,20.93
2019-01-22T10:55:57.610Z,21.47
2019-01-22T10:58:26.099Z,21.00
2019-01-22T11:00:54.631Z,22.20
2019-01-22T11:03:23.135Z,20.87
2019-01-22T11:05:51.616Z,21.80
2019-01-22T11:08:20.098Z,20.73
2019-01-22T11:10:48.578Z,22.17
2019-01-22T11:13:17.059Z,22.20
2019-01-22T11:15:45.521Z,19.73
2019-01-22T11:18:14.024Z,20.40
2019-01-22T11:20:42.526Z,21.07
2019-01-22T11:23:11.007Z,20.50
2019-01-22T11:25:43.624Z,20.47
2019-01-22T11:28:10.161Z,19.57
2019-01-22T11:30:38.621Z,20.07
2019-01-22T11:33:07.284Z,20.53
2019-01-22T11:35:35.748Z,20.93
2019-01-22T11:38:04.439Z,19.43
2019-01-22T11:40:35.859Z,20.00
2019-01-22T11:43:04.523Z,19.20
2019-01-22T11:45:32.992Z,19.43
2019-01-22T11:48:02.151Z,18.93
2019-01-22T11:50:30.734Z,19.10
2019-01-22T11:52:59.277Z,18.77
2019-01-22T11:55:27.737Z,18.43
2019-01-22T11:57:56.302Z,18.70
2019-01-22T12:00:31.907Z,18.07
2019-01-22T12:03:00.388Z,18.03
2019-01-22T12:05:28.858Z,17.90
2019-01-22T12:07:57.378Z,18.93
2019-01-22T12:10:25.833Z,16.60
2019-01-22T12:12:54.345Z,18.13
2019-01-22T12:15:23.080Z,17.87
2019-01-22T12:17:51.574Z,17.73
2019-01-22T12:20:29.102Z,17.10
2019-01-22T12:22:57.810Z,17.20
2019-01-22T12:25:26.311Z,18.57
2019-01-22T12:27:54.799Z,17.37
2019-01-22T12:30:32.011Z,18.23
2019-01-22T12:33:00.489Z,19.17
2019-01-22T12:35:29.029Z,18.40
2019-01-22T12:37:57.663Z,18.43
2019-01-22T12:40:29.629Z,20.63
2019-01-22T12:42:59.462Z,19.00
2019-01-22T12:45:33.274Z,18.20
2019-01-22T12:48:01.788Z,17.97
2019-01-22T12:50:30.235Z,18.27
2019-01-22T12:52:58.723Z,19.00
2019-01-22T12:55:27.203Z,19.73
2019-01-22T12:57:55.685Z,20.00
2019-01-22T13:00:30.780Z,18.27
2019-01-22T13:02:59.304Z,19.07
2019-01-22T13:05:51.548Z,20.00
2019-01-22T13:08:20.039Z,21.10
2019-01-22T13:10:48.618Z,20.83
2019-01-22T13:13:18.308Z,19.70
2019-01-22T13:15:47.019Z,20.27
2019-01-22T13:18:15.498Z,19.70
2019-01-22T13:20:44.246Z,19.57
2019-01-22T13:23:12.735Z,20.30
2019-01-22T13:25:41.443Z,19.67
2019-01-22T13:28:10.007Z,19.97
2019-01-22T13:30:38.477Z,20.00
2019-01-22T13:33:07.070Z,20.13
2019-01-22T13:35:35.566Z,18.50
2019-01-22T13:38:04.221Z,19.83
2019-01-22T13:40:32.682Z,19.63
2019-01-22T13:43:01.182Z,19.07
2019-01-22T13:45:35.412Z,18.27
2019-01-22T13:48:06.748Z,19.00
2019-01-22T13:50:35.206Z,19.30
2019-01-22T13:53:03.692Z,18.37
2019-01-22T13:55:34.892Z,18.50
2019-01-22T13:58:03.452Z,18.03
2019-01-22T14:00:31.989Z,19.00
2019-01-22T14:03:01.752Z,18.17
2019-01-22T14:05:30.655Z,17.63
2019-01-22T14:07:59.465Z,17.00
2019-01-22T14:10:28.039Z,17.63
2019-01-22T14:12:56.764Z,16.60
2019-01-22T14:15:30.646Z,15.93
2019-01-22T14:17:59.117Z,18.30
2019-01-22T14:20:27.598Z,16.57
2019-01-22T14:22:56.071Z,16.40
2019-01-22T14:25:24.784Z,17.03
2019-01-22T14:27:53.397Z,17.57
2019-01-22T14:30:51.703Z,16.47
2019-01-22T14:33:20.197Z,16.90
2019-01-22T14:35:48.683Z,16.90
2019-01-22T14:38:17.149Z,16.20
2019-01-22T14:40:45.753Z,15.50
2019-01-22T14:43:14.230Z,16.57
2019-01-22T14:45:42.764Z,15.63
2019-01-22T14:48:11.244Z,15.57
2019-01-22T14:50:39.745Z,15.90
2019-01-22T14:53:08.394Z,16.40
2019-01-22T14:55:36.973Z,15.80
2019-01-22T14:58:05.526Z,16.43
2019-01-22T15:00:34.087Z,15.93
2019-01-22T15:03:02.599Z,16.17
2019-01-22T15:05:31.078Z,16.37
2019-01-22T15:07:59.551Z,16.00
2019-01-22T15:10:28.046Z,17.50
2019-01-22T15:12:58.552Z,16.83
2019-01-22T15:15:27.318Z,17.63
2019-01-22T15:17:55.861Z,17.00
2019-01-22T15:20:27.553Z,17.57
2019-01-22T15:22:56.038Z,18.03
2019-01-22T15:25:24.602Z,18.30
2019-01-22T15:27:53.069Z,17.20
2019-01-22T15:30:32.799Z,16.83
2019-01-22T15:33:01.277Z,17.30
2019-01-22T15:35:29.838Z,17.50
2019-01-22T15:37:58.332Z,17.83
2019-01-22T15:40:29.350Z,18.87
2019-01-22T15:42:57.813Z,18.60
2019-01-22T15:45:26.847Z,17.23
2019-01-22T15:47:55.762Z,17.50
2019-01-22T15:50:24.792Z,18.03
2019-01-22T15:52:53.463Z,18.17
2019-01-22T15:55:33.292Z,17.70
2019-01-22T15:58:01.838Z,18.27
2019-01-22T16:00:30.663Z,16.03
2019-01-22T16:02:59.133Z,18.83
2019-01-22T16:05:27.794Z,17.63
2019-01-22T16:07:56.267Z,18.37
2019-01-22T16:10:24.760Z,18.90
2019-01-22T16:12:53.238Z,18.23
2019-01-22T16:15:23.680Z,18.10
2019-01-22T16:17:53.390Z,18.20
2019-01-22T16:20:24.491Z,17.73
2019-01-22T16:22:53.330Z,18.13
2019-01-22T16:25:22.168Z,17.07
2019-01-22T16:27:50.640Z,16.87
2019-01-22T16:30:24.606Z,18.97
2019-01-22T16:32:53.213Z,18.77
2019-01-22T16:35:23.639Z,18.80
2019-01-22T16:37:52.176Z,19.37
2019-01-22T16:40:20.674Z,18.47
2019-01-22T16:42:49.694Z,19.23
2019-01-22T16:45:26.839Z,19.73
2019-01-22T16:47:55.320Z,18.07
2019-01-22T16:50:23.815Z,20.03
2019-01-22T16:52:52.302Z,18.67
2019-01-22T16:55:29.664Z,19.77
2019-01-22T16:57:58.133Z,19.43
2019-01-22T17:00:28.971Z,18.33
2019-01-22T17:02:57.450Z,20.13
2019-01-22T17:05:26.241Z,20.27
2019-01-22T17:07:54.749Z,19.77
2019-01-22T17:10:23.440Z,18.43
2019-01-22T17:12:51.913Z,18.27
2019-01-22T17:15:20.405Z,19.37
2019-01-22T17:17:48.958Z,20.73
2019-01-22T17:20:25.898Z,20.23
2019-01-22T17:22:54.355Z,20.17
2019-01-22T17:25:22.864Z,19.77
2019-01-22T17:27:51.404Z,19.70
2019-01-22T17:30:21.844Z,19.73
2019-01-22T17:33:04.125Z,21.73
2019-01-22T17:35:34.814Z,20.73
2019-01-22T17:38:03.300Z,18.67
2019-01-22T17:40:31.781Z,20.60
2019-01-22T17:43:00.258Z,19.83
2019-01-22T17:45:28.753Z,20.83
2019-01-22T17:47:57.259Z,20.23
2019-01-22T17:50:25.762Z,21.13
2019-01-22T17:52:54.250Z,21.80
2019-01-22T17:55:22.744Z,21.80
2019-01-22T17:57:51.216Z,21.53
2019-01-22T18:00:22.594Z,21.17
2019-01-22T18:02:52.612Z,20.63
2019-01-22T18:05:21.339Z,19.87
2019-01-22T18:07:49.987Z,21.17
2019-01-22T18:10:24.151Z,20.67
2019-01-22T18:12:52.621Z,21.47
2019-01-22T18:15:22.400Z,21.53
2019-01-22T18:17:50.880Z,22.33
2019-01-22T18:20:27.596Z,22.60
2019-01-22T18:22:56.103Z,21.57
2019-01-22T18:25:24.791Z,24.30
2019-01-22T18:27:53.263Z,24.00
2019-01-22T18:30:23.937Z,21.47
2019-01-22T18:32:52.659Z,24.03
2019-01-22T18:35:38.018Z,22.43
2019-01-22T18:38:03.506Z,23.57
2019-01-22T18:40:31.987Z,22.53
2019-01-22T18:43:00.468Z,22.83
2019-01-22T18:45:28.954Z,21.43
2019-01-22T18:47:57.412Z,23.57
2019-01-22T18:50:27.151Z,22.80
2019-01-22T18:52:55.613Z,23.40
2019-01-22T18:55:24.108Z,24.10
2019-01-22T18:57:52.562Z,22.73
2019-01-22T19:00:23.289Z,23.50
2019-01-22T19:02:52.510Z,24.63
2019-01-22T19:05:21.791Z,24.63
2019-01-22T19:07:50.418Z,22.90
2019-01-22T19:10:27.235Z,22.77
2019-01-22T19:12:55.714Z,23.03
2019-01-22T19:15:24.656Z,22.80
2019-01-22T19:17:53.154Z,20.87
2019-01-22T19:20:21.701Z,22.13
2019-01-22T19:22:50.204Z,22.00
2019-01-22T19:25:21.399Z,21.33
2019-01-22T19:27:49.962Z,22.27
2019-01-22T19:30:21.280Z,21.97
2019-01-22T19:32:49.829Z,23.20
2019-01-22T19:35:18.473Z,21.10
2019-01-22T19:37:46.959Z,21.97
2019-01-22T19:40:17.368Z,22.83
2019-01-22T19:42:45.941Z,22.67
2019-01-22T19:45:19.656Z,22.43
2019-01-22T19:47:48.158Z,22.30
2019-01-22T19:50:17.587Z,21.80
2019-01-22T19:52:46.065Z,22.27
2019-01-22T19:55:14.901Z,21.37
2019-01-22T19:57:43.392Z,22.13
2019-01-22T20:00:17.607Z,20.90
2019-01-22T20:02:46.105Z,22.73
2019-01-22T20:05:14.914Z,22.23
2019-01-22T20:07:43.403Z,23.33
2019-01-22T20:10:14.915Z,21.67
2019-01-22T20:12:43.437Z,22.77
2019-01-22T20:15:14.635Z,22.00
2019-01-22T20:17:43.131Z,21.30
2019-01-22T20:20:14.544Z,20.40
2019-01-22T20:22:43.028Z,21.67
2019-01-22T20:25:11.936Z,20.43
2019-01-22T20:27:40.434Z,20.97
2019-01-22T20:30:20.528Z,20.27
2019-01-22T20:32:49.030Z,21.13
2019-01-22T20:35:17.494Z,20.97
2019-01-22T20:37:45.996Z,20.70
2019-01-22T20:40:15.330Z,21.20
2019-01-22T20:42:43.805Z,20.47
2019-01-22T20:45:15.353Z,21.17
2019-01-22T20:47:43.847Z,20.80
2019-01-22T20:50:19.399Z,19.60
2019-01-22T20:52:46.195Z,22.40
2019-01-22T20:55:17.727Z,21.30
2019-01-22T20:57:46.219Z,20.60
2019-01-22T21:00:18.284Z,21.07
2019-01-22T21:02:46.769Z,20.33
2019-01-22T21:05:20.719Z,19.87
2019-01-22T21:07:49.432Z,22.40
2019-01-22T21:10:23.376Z,21.90
2019-01-22T21:12:51.874Z,22.17
2019-01-22T21:15:20.403Z,20.73
2019-01-22T21:17:48.891Z,21.70
2019-01-22T21:20:18.506Z,20.53
2019-01-22T21:22:47.012Z,22.77
2019-01-22T21:25:20.734Z,21.57
2019-01-22T21:27:49.409Z,22.63
2019-01-22T21:30:29.612Z,21.67
2019-01-22T21:32:58.369Z,22.87
2019-01-22T21:35:26.997Z,22.30
2019-01-22T21:37:55.502Z,21.87
2019-01-22T21:40:24.040Z,21.93
2019-01-22T21:42:52.601Z,22.77
2019-01-22T21:45:26.425Z,24.83
2019-01-22T21:47:54.992Z,22.53
2019-01-22T21:50:23.476Z,24.07
2019-01-22T21:52:51.987Z,23.87
2019-01-22T21:55:22.387Z,24.10
2019-01-22T21:57:50.959Z,24.90
2019-01-22T22:00:26.636Z,26.27
2019-01-22T22:02:55.239Z,24.37
2019-01-22T22:05:29.074Z,24.50
2019-01-22T22:08:18.271Z,26.20
2019-01-22T22:10:46.736Z,26.17
2019-01-22T22:13:15.271Z,26.23
2019-01-22T22:15:43.777Z,26.60
2019-01-22T22:18:12.255Z,25.90
2019-01-22T22:20:42.385Z,26.53
2019-01-22T22:23:10.948Z,26.97
2019-01-22T22:25:39.424Z,27.80
2019-01-22T22:28:07.909Z,30.00
2019-01-22T22:30:36.915Z,29.27
2019-01-22T22:33:05.856Z,30.43
2019-01-22T22:35:34.336Z,28.90
2019-01-22T22:38:02.892Z,29.33
2019-01-22T22:40:31.528Z,30.43
2019-01-22T22:43:00.025Z,29.87
2019-01-22T22:45:28.505Z,31.83
2019-01-22T22:47:57.006Z,29.53
2019-01-22T22:50:30.544Z,29.90
2019-01-22T22:52:59.119Z,29.70
2019-01-22T22:55:27.584Z,30.87
2019-01-22T22:57:56.075Z,31.97
2019-01-22T23:00:31.843Z,29.57
2019-01-22T23:03:01.172Z,34.20
2019-01-22T23:05:29.760Z,30.77
2019-01-22T23:07:58.253Z,30.83
2019-01-22T23:10:26.799Z,30.43
2019-01-22T23:12:55.318Z,31.63
2019-01-22T23:15:23.805Z,30.97
2019-01-22T23:17:52.286Z,29.47
2019-01-22T23:20:20.765Z,30.73
2019-01-22T23:22:49.414Z,31.80
2019-01-22T23:25:17.892Z,30.63
2019-01-22T23:27:46.389Z,33.07
2019-01-22T23:30:17.308Z,31.13
2019-01-22T23:32:45.976Z,31.73
2019-01-22T23:35:15.182Z,32.50
2019-01-22T23:37:43.684Z,31.90
2019-01-22T23:40:14.661Z,33.03
2019-01-22T23:42:43.160Z,35.73
2019-01-22T23:45:13.657Z,33.20
2019-01-22T23:47:42.213Z,34.33
2019-01-22T23:50:12.618Z,32.67
2019-01-22T23:52:41.105Z,32.97
2019-01-22T23:55:12.117Z,34.10
2019-01-22T23:57:40.679Z,33.97
